Terminal Aerodrome Forecast
Issued by NWS

Home | Current Version | Previous Version | Text Only | Print | Product List | Glossary On
Versions: 1 2 3 4 5 6 7 8 9 10 11 12 13 14 15 16 17 18
000
FTUS43 KOAX 281743
TAFBFF
TAF
KBFF 281743Z 2818/2918 09015G25KT 1/2SM SN FG OVC007
      TEMPO 2820/2824 1SM -SN BR
     FM290000 04015KT 2SM -SN BR BKN007 OVC015
     FM290600 03007KT 5SM BR BKN015 OVC025=

USA.gov is the U.S. government's official web portal to all federal, state and local government web resources and services.